Time;durP1;ratioP1;P1;durP2;ratioP2;P2;SDS_P1;SDS_P2;PMS_P1;PMS_P2;Temp;Humidity;BMP_temperature;BMP_pressure;BME280_temperature;BME280_humidity;BME280_pressure;Samples;Min_cycle;Max_cycle;Signal;HPM_P1;HPM_P2
2021/05/15 00:01:59;;;;;;;8.90;4.85;;;11.30;81.20;;;;;;5054850;28;20388;-35
2021/05/15 00:04:25;;;;;;;7.15;4.63;;;11.30;81.50;;;;;;5055042;28;20032;-37
2021/05/15 00:06:50;;;;;;;7.35;4.53;;;11.30;81.20;;;;;;5054497;28;20024;-37
2021/05/15 00:09:16;;;;;;;9.65;6.13;;;11.30;81.10;;;;;;5054004;28;20027;-34
2021/05/15 00:11:42;;;;;;;5.97;3.78;;;11.20;81.60;;;;;;5053781;28;20112;-35
2021/05/15 00:14:08;;;;;;;7.45;5.35;;;11.00;82.10;;;;;;5052986;28;20021;-35
2021/05/15 00:16:35;;;;;;;4.85;3.88;;;11.00;82.10;;;;;;5054323;28;20100;-35
2021/05/15 00:19:00;;;;;;;4.78;3.90;;;11.10;81.80;;;;;;5054208;28;20406;-34
2021/05/15 00:21:26;;;;;;;9.10;3.75;;;11.00;81.90;;;;;;5054088;28;20021;-35
2021/05/15 00:23:52;;;;;;;6.25;4.00;;;10.90;82.30;;;;;;5054401;28;20079;-34
2021/05/15 00:26:18;;;;;;;4.70;4.30;;;10.90;82.40;;;;;;5053467;28;20036;-35
2021/05/15 00:28:44;;;;;;;12.05;5.63;;;10.80;82.60;;;;;;5054975;28;20527;-35
2021/05/15 00:31:10;;;;;;;7.07;4.60;;;10.90;82.60;;;;;;5054253;28;20029;-35
2021/05/15 00:33:36;;;;;;;4.65;3.92;;;10.70;83.30;;;;;;5053849;28;20035;-35
2021/05/15 00:36:02;;;;;;;5.82;4.40;;;10.70;83.40;;;;;;5052953;28;20052;-35
2021/05/15 00:38:28;;;;;;;7.05;4.53;;;10.70;83.30;;;;;;5053831;28;20036;-35
2021/05/15 00:40:53;;;;;;;5.78;4.28;;;10.70;83.10;;;;;;5053794;28;20108;-35
2021/05/15 00:43:19;;;;;;;7.20;5.03;;;10.70;82.90;;;;;;5053777;28;20456;-35
2021/05/15 00:45:45;;;;;;;9.45;5.38;;;10.80;83.10;;;;;;5053799;28;20051;-36
2021/05/15 00:48:11;;;;;;;5.13;4.22;;;10.80;82.90;;;;;;5054013;28;20025;-35
2021/05/15 00:50:37;;;;;;;7.80;3.75;;;10.50;83.80;;;;;;5053291;28;20481;-35
2021/05/15 00:53:04;;;;;;;6.90;3.65;;;10.50;84.00;;;;;;5053475;28;20036;-36
2021/05/15 00:55:30;;;;;;;4.53;3.65;;;10.40;84.10;;;;;;5053593;28;20029;-35
2021/05/15 00:57:57;;;;;;;5.97;3.95;;;10.60;83.60;;;;;;5054011;28;20046;-36
2021/05/15 01:00:23;;;;;;;6.13;4.03;;;10.60;83.70;;;;;;5053953;28;20032;-35
2021/05/15 01:02:48;;;;;;;8.68;4.32;;;10.60;83.60;;;;;;5053825;28;20025;-35
2021/05/15 01:05:14;;;;;;;5.75;3.80;;;10.50;83.80;;;;;;5053585;28;20025;-35
2021/05/15 01:07:44;;;;;;;4.63;4.13;;;10.50;83.90;;;;;;5053470;28;20025;-35
2021/05/15 01:10:11;;;;;;;10.35;4.57;;;10.60;83.60;;;;;;5053390;28;20090;-35
2021/05/15 01:12:51;;;;;;;6.18;4.40;;;10.60;83.60;;;;;;5053395;28;20025;-35
2021/05/15 01:15:18;;;;;;;;;;;10.50;84.20;;;;;;5053825;28;20104;-35
2021/05/15 01:17:59;;;;;;;12.50;4.43;;;10.50;84.10;;;;;;5053587;28;19905;-35
2021/05/15 01:20:31;;;;;;;9.38;5.05;;;10.40;84.30;;;;;;5053265;28;20033;-35
2021/05/15 01:22:57;;;;;;;6.25;5.00;;;10.50;84.20;;;;;;5052978;28;20029;-35
2021/05/15 01:25:23;;;;;;;7.68;4.57;;;10.50;84.20;;;;;;5052918;28;20156;-36
2021/05/15 01:27:49;;;;;;;7.72;5.32;;;10.50;84.40;;;;;;5053103;28;20127;-35
2021/05/15 01:30:16;;;;;;;6.38;4.75;;;10.50;84.00;;;;;;5053328;28;20025;-35
2021/05/15 01:32:43;;;;;;;8.90;4.78;;;10.40;84.60;;;;;;5053189;28;20098;-35
2021/05/15 01:35:10;;;;;;;9.50;5.57;;;10.30;85.20;;;;;;5053153;28;20029;-35
2021/05/15 01:37:36;;;;;;;9.43;5.50;;;10.30;85.40;;;;;;5051876;28;20401;-35
2021/05/15 01:40:06;;;;;;;6.65;4.60;;;10.30;85.10;;;;;;5053370;28;20022;-36
2021/05/15 01:42:32;;;;;;;6.90;4.85;;;10.20;85.40;;;;;;5053105;28;20050;-36
2021/05/15 01:44:59;;;;;;;7.15;4.80;;;10.20;85.80;;;;;;5053085;28;20029;-35
2021/05/15 01:47:25;;;;;;;7.65;4.80;;;10.30;85.10;;;;;;5053024;28;20435;-36
2021/05/15 01:49:50;;;;;;;7.90;4.88;;;10.30;84.90;;;;;;5053128;28;20029;-34
2021/05/15 01:52:16;;;;;;;6.07;5.05;;;10.20;84.90;;;;;;5053066;28;20107;-34
2021/05/15 01:54:42;;;;;;;8.88;6.10;;;10.20;85.10;;;;;;5053104;28;20112;-35
2021/05/15 01:57:08;;;;;;;5.45;4.72;;;10.20;84.80;;;;;;5053273;28;20017;-35
2021/05/15 01:59:34;;;;;;;5.53;4.28;;;10.00;85.20;;;;;;5053267;28;20029;-34
2021/05/15 02:02:00;;;;;;;7.63;4.75;;;9.80;86.20;;;;;;5052916;28;20381;-34
2021/05/15 02:04:25;;;;;;;6.68;4.88;;;9.70;86.70;;;;;;5052924;28;20032;-35
2021/05/15 02:06:51;;;;;;;7.43;5.75;;;9.80;86.80;;;;;;5053086;28;20036;-36
2021/05/15 02:09:17;;;;;;;10.68;5.00;;;9.80;86.50;;;;;;5052935;28;20025;-35
2021/05/15 02:11:43;;;;;;;6.05;4.75;;;9.70;86.80;;;;;;5052819;28;20051;-35
2021/05/15 02:14:09;;;;;;;7.88;5.15;;;9.70;86.70;;;;;;5052991;28;20022;-35
2021/05/15 02:16:34;;;;;;;9.55;5.30;;;9.70;87.00;;;;;;5053075;28;20022;-36
2021/05/15 02:19:00;;;;;;;6.07;5.03;;;9.70;87.00;;;;;;5053097;28;20187;-35
2021/05/15 02:21:26;;;;;;;8.27;4.97;;;9.70;87.20;;;;;;5052744;28;20043;-35
2021/05/15 02:23:52;;;;;;;7.90;4.65;;;9.60;87.10;;;;;;5052909;28;20021;-35
2021/05/15 02:26:18;;;;;;;10.38;5.57;;;9.50;87.40;;;;;;5053097;28;20033;-35
2021/05/15 02:28:44;;;;;;;9.43;5.70;;;9.50;87.40;;;;;;5051832;28;20082;-35
2021/05/15 02:31:10;;;;;;;8.02;5.10;;;9.60;87.30;;;;;;5052646;28;20108;-35
2021/05/15 02:33:35;;;;;;;6.32;4.55;;;9.50;87.00;;;;;;5052565;28;20116;-35
2021/05/15 02:36:01;;;;;;;7.20;5.38;;;9.50;86.90;;;;;;5055121;28;20029;-35
2021/05/15 02:38:27;;;;;;;6.05;5.03;;;9.40;87.00;;;;;;5056423;28;20029;-35
2021/05/15 02:40:54;;;;;;;7.05;4.75;;;9.30;87.40;;;;;;5057377;28;20369;-35
2021/05/15 02:43:20;;;;;;;10.57;6.07;;;9.30;87.50;;;;;;5055334;28;20543;-35
2021/05/15 02:45:45;;;;;;;7.00;6.30;;;9.30;88.00;;;;;;5056414;28;20029;-34
2021/05/15 02:48:16;;;;;;;7.53;5.68;;;9.30;88.30;;;;;;5056155;28;20036;-34
2021/05/15 02:50:46;;;;;;;7.07;5.82;;;9.30;88.50;;;;;;5056187;28;20056;-35
2021/05/15 02:53:12;;;;;;;8.70;6.00;;;9.40;88.20;;;;;;5056459;28;20075;-36
2021/05/15 02:55:37;;;;;;;10.98;7.15;;;9.40;88.20;;;;;;5056015;28;20057;-36
2021/05/15 02:58:03;;;;;;;11.30;7.53;;;9.60;88.00;;;;;;5056154;28;20056;-36
2021/05/15 03:00:29;;;;;;;8.05;6.72;;;9.50;87.60;;;;;;5055957;28;20095;-34
2021/05/15 03:02:58;;;;;;;9.68;6.30;;;9.40;87.80;;;;;;5055792;28;20389;-35
2021/05/15 03:05:26;;;;;;;11.35;6.88;;;9.30;88.10;;;;;;5056240;28;20017;-35
2021/05/15 03:07:53;;;;;;;9.50;7.13;;;9.30;88.10;;;;;;5055853;28;20024;-35
2021/05/15 03:10:23;;;;;;;11.18;8.32;;;9.30;88.50;;;;;;5055712;28;20021;-35
2021/05/15 03:12:50;;;;;;;13.80;7.80;;;9.40;88.30;;;;;;5056032;28;20025;-35
2021/05/15 03:15:16;;;;;;;11.05;8.18;;;9.50;87.90;;;;;;5056058;28;20112;-35
2021/05/15 03:17:43;;;;;;;9.63;7.80;;;9.40;88.10;;;;;;5055476;28;20056;-35
2021/05/15 03:20:12;;;;;;;10.05;7.28;;;9.30;88.00;;;;;;5055804;28;20377;-35
2021/05/15 03:22:37;;;;;;;10.63;7.00;;;9.30;87.80;;;;;;5055492;28;20055;-34
2021/05/15 03:25:04;;;;;;;8.23;6.47;;;9.30;88.00;;;;;;5055311;28;20036;-34
2021/05/15 03:27:30;;;;;;;10.10;7.63;;;9.30;87.90;;;;;;5055495;28;20499;-35
2021/05/15 03:29:56;;;;;;;11.70;7.57;;;9.40;87.80;;;;;;5055451;28;20025;-35
2021/05/15 03:32:22;;;;;;;12.25;8.02;;;9.60;87.80;;;;;;5054064;28;20025;-36
2021/05/15 03:34:48;;;;;;;13.00;7.65;;;9.70;87.10;;;;;;5055245;28;20056;-35
2021/05/15 03:37:13;;;;;;;13.93;8.45;;;9.70;87.00;;;;;;5055385;28;20074;-35
2021/05/15 03:39:39;;;;;;;11.02;8.05;;;9.70;87.30;;;;;;5055347;28;20024;-35
2021/05/15 03:42:05;;;;;;;11.75;8.23;;;9.70;87.50;;;;;;5055264;28;20021;-35
2021/05/15 03:44:31;;;;;;;10.05;7.30;;;9.90;86.90;;;;;;5055012;28;20031;-35
2021/05/15 03:46:56;;;;;;;9.43;7.50;;;9.90;86.50;;;;;;5054051;28;20037;-35
2021/05/15 03:49:22;;;;;;;11.38;8.00;;;10.20;85.90;;;;;;5055039;28;20025;-35
2021/05/15 03:51:48;;;;;;;10.98;8.18;;;10.10;85.90;;;;;;5054908;28;20052;-35
2021/05/15 03:54:13;;;;;;;10.93;8.38;;;10.00;86.40;;;;;;5054879;28;20055;-34
2021/05/15 03:56:39;;;;;;;14.07;7.53;;;10.10;86.60;;;;;;5055060;28;20025;-35
2021/05/15 03:59:06;;;;;;;10.02;7.82;;;10.20;86.60;;;;;;5055012;28;20017;-35
2021/05/15 04:01:31;;;;;;;12.05;7.82;;;10.30;85.80;;;;;;5054540;28;20119;-35
2021/05/15 04:03:57;;;;;;;8.00;7.18;;;10.30;85.20;;;;;;5054690;28;20021;-35
2021/05/15 04:06:22;;;;;;;10.57;8.27;;;10.30;85.40;;;;;;5054928;28;20055;-34
2021/05/15 04:08:48;;;;;;;11.10;7.47;;;10.40;85.30;;;;;;5055166;28;20451;-35
2021/05/15 04:11:14;;;;;;;12.43;7.65;;;10.30;85.70;;;;;;5055189;28;20407;-35
2021/05/15 04:13:48;;;;;;;9.73;8.18;;;10.30;85.40;;;;;;5054344;28;20103;-35
2021/05/15 04:18:42;;;;;;;10.68;7.20;;;10.30;85.60;;;;;;5054565;28;20036;-35
2021/05/15 04:21:08;;;;;;;9.38;7.30;;;10.30;85.80;;;;;;5054428;28;20021;-35
2021/05/15 04:23:34;;;;;;;11.95;7.90;;;10.30;86.00;;;;;;5054288;28;20029;-35
2021/05/15 04:26:01;;;;;;;10.50;7.88;;;10.50;85.30;;;;;;5054299;28;20021;-35
2021/05/15 04:28:27;;;;;;;11.20;8.02;;;10.40;85.90;;;;;;5054311;28;20087;-35
2021/05/15 04:30:54;;;;;;;11.07;7.85;;;10.60;85.00;;;;;;5052679;28;20029;-35
2021/05/15 04:33:23;;;;;;;9.45;7.10;;;10.60;84.80;;;;;;5054100;28;20401;-35
2021/05/15 04:35:50;;;;;;;11.55;7.35;;;10.40;85.70;;;;;;5053857;28;20079;-35
2021/05/15 04:38:16;;;;;;;9.35;7.30;;;10.50;85.40;;;;;;5054080;28;20025;-35
2021/05/15 04:40:42;;;;;;;8.15;7.05;;;10.50;85.30;;;;;;5054085;28;20025;-35
2021/05/15 04:43:08;;;;;;;9.70;6.70;;;10.50;85.40;;;;;;5053851;28;20043;-35
2021/05/15 04:45:33;;;;;;;8.20;6.70;;;10.40;85.60;;;;;;5054045;28;20017;-35
2021/05/15 04:47:59;;;;;;;8.80;6.28;;;10.30;86.20;;;;;;5054065;28;20031;-35
2021/05/15 04:50:25;;;;;;;7.88;6.70;;;10.60;85.50;;;;;;5053460;28;20041;-35
2021/05/15 04:52:51;;;;;;;11.13;6.63;;;10.60;85.30;;;;;;5053631;28;20025;-35
2021/05/15 04:55:17;;;;;;;9.00;7.20;;;10.60;85.50;;;;;;5052370;28;20107;-35
2021/05/15 04:57:43;;;;;;;8.18;5.18;;;10.80;84.20;;;;;;5053558;28;20048;-35
2021/05/15 05:00:10;;;;;;;10.15;6.03;;;10.70;84.30;;;;;;5053622;28;20490;-35
2021/05/15 05:02:35;;;;;;;6.50;5.85;;;10.80;84.40;;;;;;5053471;28;20025;-34
2021/05/15 05:05:01;;;;;;;9.93;6.20;;;10.70;84.80;;;;;;5053570;28;20036;-35
2021/05/15 05:07:27;;;;;;;8.48;6.55;;;10.80;84.30;;;;;;5053569;28;20036;-35
2021/05/15 05:09:52;;;;;;;11.32;5.85;;;10.90;83.90;;;;;;5053462;28;20121;-35
2021/05/15 05:12:18;;;;;;;9.32;6.13;;;11.00;83.80;;;;;;5053537;28;20029;-34
2021/05/15 05:14:44;;;;;;;8.88;6.15;;;11.10;83.60;;;;;;5054381;28;20404;-34
2021/05/15 05:17:10;;;;;;;7.13;5.78;;;11.00;83.80;;;;;;5053303;28;20033;-34
2021/05/15 05:19:36;;;;;;;7.57;6.15;;;11.00;83.90;;;;;;5053556;28;20075;-35
2021/05/15 05:22:02;;;;;;;8.07;7.05;;;10.60;86.40;;;;;;5053631;28;20091;-35
2021/05/15 05:24:29;;;;;;;9.27;6.80;;;10.60;86.70;;;;;;5053414;28;20025;-35
2021/05/15 05:26:55;;;;;;;9.60;8.02;;;10.40;87.80;;;;;;5051783;28;20485;-35
2021/05/15 05:29:22;;;;;;;11.73;7.65;;;10.60;87.60;;;;;;5053836;28;20025;-35
2021/05/15 05:31:50;;;;;;;9.02;7.28;;;10.50;88.40;;;;;;5053309;28;20385;-35
2021/05/15 05:34:16;;;;;;;9.27;8.02;;;10.30;88.90;;;;;;5051706;28;20025;-35
2021/05/15 05:36:42;;;;;;;10.27;8.07;;;10.30;89.70;;;;;;5053503;28;20477;-35
2021/05/15 05:39:15;;;;;;;11.55;7.72;;;10.30;89.20;;;;;;5052968;28;20100;-35
2021/05/15 05:41:40;;;;;;;11.05;7.78;;;10.30;89.60;;;;;;5052945;28;20025;-35
2021/05/15 05:44:06;;;;;;;10.30;7.85;;;10.40;88.70;;;;;;5051619;28;20032;-35
2021/05/15 05:46:32;;;;;;;11.50;7.22;;;10.40;88.70;;;;;;5053152;28;20040;-35
2021/05/15 05:48:59;;;;;;;9.77;6.53;;;10.30;89.30;;;;;;5052898;28;20389;-35
2021/05/15 05:51:24;;;;;;;10.90;6.30;;;10.30;89.90;;;;;;5052677;28;20041;-35
2021/05/15 05:53:50;;;;;;;9.73;6.65;;;10.30;89.10;;;;;;5053104;28;20432;-35
2021/05/15 05:56:17;;;;;;;7.90;5.68;;;10.40;89.60;;;;;;5052857;28;20142;-35
2021/05/15 05:58:45;;;;;;;6.95;6.25;;;10.40;89.20;;;;;;5052681;28;20491;-35
2021/05/15 06:01:14;;;;;;;5.90;5.10;;;10.40;89.00;;;;;;5052782;28;20075;-35
2021/05/15 06:03:40;;;;;;;7.72;5.80;;;10.50;87.90;;;;;;5052816;28;20029;-35
2021/05/15 06:06:08;;;;;;;8.88;5.88;;;10.40;89.10;;;;;;5053490;28;20108;-35
2021/05/15 06:08:34;;;;;;;9.35;6.70;;;10.70;88.10;;;;;;5052633;28;20029;-34
2021/05/15 06:11:00;;;;;;;9.77;7.07;;;10.80;87.80;;;;;;5054972;28;20025;-35
2021/05/15 06:13:25;;;;;;;7.95;5.75;;;10.90;88.20;;;;;;5056845;28;20358;-35
2021/05/15 06:15:51;;;;;;;9.43;6.22;;;10.80;87.90;;;;;;5056609;28;20143;-34
2021/05/15 06:18:17;;;;;;;11.73;7.30;;;10.80;87.70;;;;;;5056294;28;20127;-35
2021/05/15 06:20:43;;;;;;;10.43;7.30;;;10.80;87.50;;;;;;5056208;28;20107;-34
2021/05/15 06:23:09;;;;;;;8.77;6.38;;;11.10;87.10;;;;;;5056700;28;20025;-35
2021/05/15 06:25:35;;;;;;;8.90;6.70;;;11.20;85.90;;;;;;5056215;28;20025;-35
2021/05/15 06:28:00;;;;;;;12.50;7.20;;;11.20;86.20;;;;;;5055125;28;20044;-35
2021/05/15 06:30:26;;;;;;;10.73;7.43;;;11.40;85.20;;;;;;5056154;28;20021;-35
2021/05/15 06:32:52;;;;;;;10.93;7.55;;;11.40;86.30;;;;;;5056208;28;20025;-35
2021/05/15 06:35:18;;;;;;;9.27;6.28;;;11.50;85.70;;;;;;5056068;28;20107;-36
2021/05/15 06:37:43;;;;;;;8.00;6.50;;;11.70;84.00;;;;;;5056096;28;20020;-34
2021/05/15 06:40:11;;;;;;;9.05;6.38;;;11.80;83.80;;;;;;5054907;28;20104;-35
2021/05/15 06:42:37;;;;;;;8.25;6.25;;;11.80;84.10;;;;;;5056109;28;20017;-35
2021/05/15 06:45:05;;;;;;;11.27;6.65;;;11.80;83.80;;;;;;5056229;28;20384;-34
2021/05/15 06:47:31;;;;;;;7.30;6.10;;;11.80;84.30;;;;;;5056534;28;20377;-35
2021/05/15 06:49:56;;;;;;;10.35;6.75;;;11.90;83.10;;;;;;5055887;28;20025;-36
2021/05/15 06:52:22;;;;;;;8.88;5.93;;;12.10;83.00;;;;;;5056428;28;20059;-35
2021/05/15 06:54:48;;;;;;;7.13;5.45;;;12.30;82.90;;;;;;5055837;28;20376;-35
2021/05/15 06:57:13;;;;;;;6.70;5.55;;;12.00;82.60;;;;;;5055851;28;20112;-34
2021/05/15 06:59:39;;;;;;;9.13;6.93;;;12.10;82.00;;;;;;5055910;28;20101;-35
2021/05/15 07:02:05;;;;;;;10.10;7.55;;;11.80;83.00;;;;;;5055878;28;20017;-35
2021/05/15 07:04:30;;;;;;;9.52;7.45;;;11.90;83.30;;;;;;5055501;28;20481;-35
2021/05/15 07:06:56;;;;;;;10.95;8.50;;;11.80;83.80;;;;;;5055502;28;20495;-35
2021/05/15 07:09:22;;;;;;;13.85;9.82;;;12.10;82.50;;;;;;5054480;28;20091;-35
2021/05/15 07:11:51;;;;;;;12.13;8.80;;;12.40;82.60;;;;;;5055155;28;20029;-35
2021/05/15 07:14:17;;;;;;;12.52;9.00;;;12.30;82.10;;;;;;5055642;28;20385;-35
2021/05/15 07:16:43;;;;;;;15.15;10.93;;;12.10;83.10;;;;;;5055608;28;20103;-35
2021/05/15 07:19:09;;;;;;;17.58;10.40;;;12.00;83.30;;;;;;5054029;28;20423;-35
2021/05/15 07:21:35;;;;;;;17.27;12.20;;;12.00;83.30;;;;;;5055236;28;20472;-35
2021/05/15 07:24:02;;;;;;;17.42;12.52;;;11.70;83.00;;;;;;5055484;28;20131;-35
2021/05/15 07:26:27;;;;;;;19.13;12.73;;;11.70;83.50;;;;;;5055379;28;20491;-36
2021/05/15 07:28:53;;;;;;;19.88;12.50;;;11.80;82.40;;;;;;5056140;28;20056;-35
2021/05/15 07:31:19;;;;;;;19.33;13.15;;;11.70;83.10;;;;;;5055680;28;20551;-35
2021/05/15 07:33:45;;;;;;;17.33;13.63;;;11.60;83.80;;;;;;5056095;28;20036;-35
2021/05/15 07:36:10;;;;;;;18.27;13.95;;;11.50;84.70;;;;;;5055868;28;20017;-35
2021/05/15 07:38:37;;;;;;;21.77;13.10;;;11.70;83.80;;;;;;5054805;28;20021;-35
2021/05/15 07:41:04;;;;;;;19.55;14.35;;;11.60;83.40;;;;;;5055093;28;20021;-36
2021/05/15 07:43:30;;;;;;;21.63;13.75;;;11.60;83.90;;;;;;5055799;28;20029;-35
2021/05/15 07:45:58;;;;;;;22.50;14.20;;;11.60;83.90;;;;;;5054916;28;20029;-36
2021/05/15 07:48:29;;;;;;;19.13;12.82;;;11.60;83.90;;;;;;5054524;28;20485;-35
2021/05/15 07:50:58;;;;;;;21.58;13.98;;;11.50;83.60;;;;;;5054878;28;20138;-35
2021/05/15 07:53:25;;;;;;;18.63;13.70;;;11.60;83.80;;;;;;5054561;28;20069;-36
2021/05/15 07:55:52;;;;;;;21.27;14.73;;;11.70;83.00;;;;;;5054158;28;20079;-36
2021/05/15 07:58:18;;;;;;;24.55;14.52;;;11.40;83.80;;;;;;5054633;28;20036;-35
2021/05/15 08:00:45;;;;;;;22.27;15.43;;;11.40;83.80;;;;;;5056332;28;20051;-36
2021/05/15 08:03:10;;;;;;;22.45;15.05;;;11.40;83.80;;;;;;5053380;28;20071;-34
2021/05/15 08:05:36;;;;;;;23.77;15.07;;;11.60;83.80;;;;;;5054919;28;20052;-35
2021/05/15 08:08:02;;;;;;;21.80;14.75;;;11.50;83.90;;;;;;5054452;28;20029;-35
2021/05/15 08:10:30;;;;;;;25.30;15.40;;;11.60;83.40;;;;;;5054918;28;20519;-35
2021/05/15 08:12:56;;;;;;;23.10;16.80;;;11.70;83.20;;;;;;5054645;28;20455;-35
2021/05/15 08:15:23;;;;;;;23.30;15.10;;;11.60;83.70;;;;;;5054814;28;20057;-35
2021/05/15 08:17:48;;;;;;;22.70;15.35;;;11.60;83.60;;;;;;5052840;28;20423;-35
2021/05/15 08:20:14;;;;;;;19.60;14.48;;;11.70;83.70;;;;;;5054182;28;20025;-35
2021/05/15 08:22:43;;;;;;;18.05;14.00;;;11.70;83.00;;;;;;5054208;28;20373;-36
2021/05/15 08:25:10;;;;;;;23.63;14.63;;;11.60;83.60;;;;;;5053811;28;20389;-42
2021/05/15 08:27:38;;;;;;;19.35;15.35;;;11.80;83.40;;;;;;5053771;28;20058;-35
2021/05/15 08:30:16;;;;;;;24.35;15.63;;;11.70;83.70;;;;;;5054267;28;20033;-35
2021/05/15 08:32:42;;;;;;;17.95;13.70;;;12.00;83.30;;;;;;5053230;28;20036;-35
2021/05/15 08:35:09;;;;;;;16.98;12.90;;;11.90;82.90;;;;;;5053663;28;20026;-36
2021/05/15 08:37:35;;;;;;;23.70;15.20;;;11.60;83.40;;;;;;5053922;28;20036;-35
2021/05/15 08:40:01;;;;;;;22.88;15.23;;;11.40;85.20;;;;;;5053608;28;20025;-36
2021/05/15 08:42:30;;;;;;;28.60;16.48;;;11.50;85.50;;;;;;5053781;28;20024;-44
2021/05/15 08:44:58;;;;;;;25.70;19.15;;;11.40;86.60;;;;;;5052306;28;20485;-35
2021/05/15 08:47:24;;;;;;;23.63;14.60;;;11.20;87.80;;;;;;5053322;28;20052;-35
2021/05/15 08:49:51;;;;;;;15.50;11.35;;;11.00;86.00;;;;;;5053296;28;20056;-35
2021/05/15 08:52:17;;;;;;;15.18;11.13;;;10.80;86.00;;;;;;5053635;28;20028;-34
2021/05/15 08:54:42;;;;;;;23.35;15.45;;;10.60;86.70;;;;;;5053313;28;20029;-35
2021/05/15 08:57:08;;;;;;;23.90;15.82;;;10.50;88.80;;;;;;5053610;28;20472;-35
2021/05/15 08:59:34;;;;;;;26.63;16.17;;;10.60;88.50;;;;;;5053665;28;20373;-35
2021/05/15 09:02:00;;;;;;;23.90;17.60;;;10.60;87.40;;;;;;5053277;28;20025;-35
2021/05/15 09:04:27;;;;;;;30.25;19.40;;;10.70;88.10;;;;;;5053187;28;20029;-35
2021/05/15 09:06:52;;;;;;;37.45;21.08;;;10.80;88.80;;;;;;5053069;28;20025;-35
2021/05/15 09:09:18;;;;;;;31.20;20.15;;;10.80;89.00;;;;;;5053462;28;20114;-35
2021/05/15 09:11:46;;;;;;;24.48;16.65;;;10.90;89.20;;;;;;5053425;28;20029;-36
2021/05/15 09:14:17;;;;;;;24.52;14.20;;;10.90;88.50;;;;;;5053017;28;20120;-35
2021/05/15 09:16:48;;;;;;;22.08;14.38;;;11.20;87.30;;;;;;5053935;28;20075;-34
2021/05/15 09:19:22;;;;;;;24.13;15.25;;;11.20;87.70;;;;;;5053268;28;20024;-36
2021/05/15 09:21:57;;;;;;;17.98;13.23;;;11.50;86.70;;;;;;5053302;28;20028;-35
2021/05/15 09:24:30;;;;;;;16.90;12.00;;;11.50;86.20;;;;;;5053367;28;20033;-37
2021/05/15 09:26:57;;;;;;;19.77;11.38;;;11.50;85.10;;;;;;5053111;28;20036;-35
2021/05/15 09:29:22;;;;;;;14.57;11.15;;;11.50;85.10;;;;;;5053000;28;20029;-35
2021/05/15 09:31:49;;;;;;;17.08;11.88;;;11.90;84.90;;;;;;5052886;28;20051;-35
2021/05/15 09:34:15;;;;;;;15.23;9.63;;;13.30;81.00;;;;;;5052869;28;20033;-35
2021/05/15 09:36:43;;;;;;;15.05;10.60;;;14.20;76.60;;;;;;5051670;28;20056;-35
2021/05/15 09:39:25;;;;;;;15.95;11.73;;;13.70;76.30;;;;;;5053176;28;20028;-35
2021/05/15 09:41:57;;;;;;;20.58;13.23;;;13.10;79.40;;;;;;5056666;28;20025;-37
2021/05/15 09:44:29;;;;;;;20.55;15.02;;;13.40;80.90;;;;;;5053092;28;20033;-37
2021/05/15 09:46:55;;;;;;;32.17;18.40;;;12.90;81.20;;;;;;5056672;28;20028;-37
2021/05/15 09:49:26;;;;;;;26.67;17.75;;;12.80;83.20;;;;;;5056863;28;20053;-37
2021/05/15 09:51:55;;;;;;;26.23;18.42;;;13.30;81.30;;;;;;5055643;28;20115;-38
2021/05/15 09:54:22;;;;;;;26.15;18.88;;;13.30;80.60;;;;;;5056627;28;20349;-37
2021/05/15 09:57:00;;;;;;;27.10;19.33;;;13.00;82.30;;;;;;5057089;28;20028;-36
2021/05/15 09:59:34;;;;;;;28.70;19.67;;;13.10;80.40;;;;;;5055041;28;20420;-36
2021/05/15 10:02:03;;;;;;;31.17;21.58;;;13.10;80.80;;;;;;5056435;28;20423;-36
2021/05/15 10:04:29;;;;;;;25.95;18.40;;;13.30;81.60;;;;;;5056241;28;20029;-36
2021/05/15 10:06:56;;;;;;;27.50;19.88;;;13.30;79.30;;;;;;5056457;28;20035;-37
2021/05/15 10:09:32;;;;;;;23.20;18.00;;;13.50;79.50;;;;;;5056518;28;20033;-36
2021/05/15 10:11:59;;;;;;;27.35;19.67;;;13.30;78.50;;;;;;5056080;28;20079;-36
2021/05/15 10:14:25;;;;;;;23.63;16.80;;;13.20;78.60;;;;;;5056383;28;20116;-36
2021/05/15 10:16:51;;;;;;;18.80;15.25;;;13.70;78.30;;;;;;5056352;28;20405;-37
2021/05/15 10:19:17;;;;;;;18.40;14.85;;;14.80;73.50;;;;;;5056036;28;20048;-36
2021/05/15 10:21:43;;;;;;;14.45;12.40;;;15.00;72.90;;;;;;5055815;28;20033;-37
2021/05/15 10:24:31;;;;;;;16.13;12.43;;;14.50;71.30;;;;;;5057200;28;20131;-38
2021/05/15 10:26:57;;;;;;;19.95;13.13;;;14.60;71.00;;;;;;5055917;28;20025;-38
2021/05/15 10:29:46;;;;;;;20.27;13.43;;;14.50;73.10;;;;;;5055952;28;20131;-38
2021/05/15 10:32:14;;;;;;;13.85;10.75;;;15.30;71.90;;;;;;5055804;28;20036;-38
2021/05/15 10:34:43;;;;;;;13.80;10.77;;;15.30;69.20;;;;;;5055617;28;20433;-38
2021/05/15 10:37:20;;;;;;;16.40;12.30;;;14.90;68.40;;;;;;5056118;28;20032;-37
2021/05/15 10:39:49;;;;;;;15.07;12.25;;;14.30;71.50;;;;;;5056028;28;20045;-36
2021/05/15 10:42:35;;;;;;;13.65;11.38;;;14.00;72.60;;;;;;5056017;28;20047;-37
2021/05/15 10:45:01;;;;;;;12.25;9.52;;;14.30;70.10;;;;;;5055131;28;20587;-37
2021/05/15 10:47:27;;;;;;;9.82;8.45;;;15.30;67.50;;;;;;5055393;28;20527;-37
2021/05/15 10:50:19;;;;;;;9.57;8.27;;;16.30;64.80;;;;;;5055400;28;20132;-38
2021/05/15 10:52:46;;;;;;;10.32;8.27;;;17.10;60.50;;;;;;5055468;28;20041;-37
2021/05/15 10:55:12;;;;;;;9.00;7.57;;;16.30;63.30;;;;;;5054924;28;20036;-37
2021/05/15 10:57:38;;;;;;;10.85;7.63;;;16.20;62.10;;;;;;5054441;28;20025;-38
2021/05/15 11:00:09;;;;;;;9.52;7.75;;;15.30;64.20;;;;;;5055056;28;20017;-38
2021/05/15 11:02:39;;;;;;;9.55;7.85;;;16.30;64.10;;;;;;5054570;28;20029;-38
2021/05/15 11:05:12;;;;;;;7.45;6.65;;;16.60;60.10;;;;;;5054044;28;20045;-38
2021/05/15 11:07:39;;;;;;;9.43;6.90;;;16.50;59.90;;;;;;5055288;28;20040;-38
2021/05/15 11:10:08;;;;;;;11.02;7.72;;;16.30;60.30;;;;;;5055643;28;20099;-37
2021/05/15 11:12:40;;;;;;;12.68;7.93;;;16.20;60.20;;;;;;5055463;28;20376;-38
2021/05/15 11:15:09;;;;;;;7.50;6.30;;;16.80;59.10;;;;;;5055351;28;20036;-36
2021/05/15 11:17:35;;;;;;;8.90;6.73;;;17.90;55.10;;;;;;5037461;28;20073;-37
2021/05/15 11:20:07;;;;;;;7.47;5.93;;;18.00;54.80;;;;;;5055814;28;20259;-37
2021/05/15 11:22:40;;;;;;;9.25;5.60;;;16.10;59.20;;;;;;5053944;28;20075;-38
2021/05/15 11:25:18;;;;;;;7.05;6.35;;;15.90;60.40;;;;;;5055839;28;20381;-38
2021/05/15 11:27:49;;;;;;;8.00;6.18;;;15.80;60.40;;;;;;5053925;28;20063;-36
2021/05/15 11:30:39;;;;;;;7.15;5.07;;;16.20;60.20;;;;;;5053971;28;20029;-37
2021/05/15 11:33:07;;;;;;;9.18;6.00;;;15.80;61.00;;;;;;5055116;28;20084;-37
2021/05/15 11:35:45;;;;;;;11.85;7.22;;;16.50;58.50;;;;;;5055072;28;20040;-37
2021/05/15 11:38:33;;;;;;;9.13;6.70;;;16.80;58.50;;;;;;5055545;28;20063;-37
2021/05/15 11:41:03;;;;;;;10.27;5.50;;;17.20;57.80;;;;;;5055040;28;20032;-37
2021/05/15 11:43:37;;;;;;;12.48;4.38;;;16.20;60.30;;;;;;5053840;28;20528;-40
2021/05/15 11:46:05;;;;;;;3.67;2.17;;;14.60;63.00;;;;;;5055806;28;20027;-37
2021/05/15 11:48:33;;;;;;;7.13;2.13;;;13.20;67.70;;;;;;5055241;28;20113;-37
2021/05/15 11:51:10;;;;;;;2.17;1.23;;;12.80;71.10;;;;;;5054670;28;20045;-37
2021/05/15 11:53:38;;;;;;;2.08;1.50;;;12.10;74.50;;;;;;5055253;28;20029;-38
2021/05/15 11:56:30;;;;;;;1.95;1.75;;;11.40;78.20;;;;;;5055655;28;20024;-36
2021/05/15 11:58:57;;;;;;;1.42;1.20;;;11.10;81.10;;;;;;5054452;28;20489;-37
2021/05/15 12:01:32;;;;;;;1.90;1.30;;;11.10;81.70;;;;;;5054521;28;20017;-36
2021/05/15 12:04:16;;;;;;;2.63;2.00;;;10.80;82.10;;;;;;5054506;28;20519;-37
2021/05/15 12:06:42;;;;;;;3.17;1.63;;;10.80;84.40;;;;;;5052902;28;20025;-37
2021/05/15 12:09:16;;;;;;;2.70;1.65;;;10.80;85.30;;;;;;5053190;28;20066;-37
2021/05/15 12:11:43;;;;;;;5.53;2.03;;;10.80;85.40;;;;;;5054507;28;20491;-36
2021/05/15 12:14:10;;;;;;;4.82;2.25;;;10.90;84.60;;;;;;5054650;28;20025;-36
2021/05/15 12:16:38;;;;;;;1.50;1.40;;;11.20;84.30;;;;;;5054032;28;20028;-37
2021/05/15 12:19:05;;;;;;;4.45;1.42;;;11.30;83.50;;;;;;5054225;28;20469;-37
2021/05/15 12:21:31;;;;;;;1.40;1.30;;;11.30;83.40;;;;;;5053950;28;20021;-36
2021/05/15 12:24:06;;;;;;;1.60;1.50;;;11.40;82.40;;;;;;5054058;28;20033;-38
2021/05/15 12:26:32;;;;;;;2.45;1.58;;;11.60;82.20;;;;;;5053802;28;20055;-37
2021/05/15 12:29:03;;;;;;;5.68;1.98;;;11.70;81.00;;;;;;5054427;28;20028;-36
2021/05/15 12:31:34;;;;;;;2.15;1.40;;;11.70;82.00;;;;;;5054181;28;20079;-37
2021/05/15 12:34:00;;;;;;;3.00;1.58;;;12.20;80.60;;;;;;5054088;28;20473;-36
2021/05/15 12:36:37;;;;;;;2.92;1.58;;;12.40;80.60;;;;;;5053712;28;20352;-37
2021/05/15 12:39:13;;;;;;;3.05;1.73;;;12.70;80.00;;;;;;5053913;28;20033;-36
2021/05/15 12:41:41;;;;;;;2.65;1.63;;;12.50;81.10;;;;;;5053930;28;20017;-37
2021/05/15 12:44:13;;;;;;;2.67;2.28;;;13.30;77.60;;;;;;5053709;28;20083;-37
2021/05/15 12:46:39;;;;;;;8.50;3.00;;;13.50;76.70;;;;;;5053737;28;20035;-37